createdAt,value
2017-12-25T00:02:16.870Z,0.93
2017-12-25T00:04:45.064Z,0.63
2017-12-25T00:07:13.253Z,0.90
2017-12-25T00:09:40.680Z,1.10
2017-12-25T00:12:09.041Z,1.07
2017-12-25T00:14:36.855Z,0.77
2017-12-25T00:17:04.762Z,0.70
2017-12-25T00:19:32.191Z,0.80
2017-12-25T00:21:59.659Z,0.60
2017-12-25T00:24:27.135Z,0.70
2017-12-25T00:26:54.661Z,0.67
2017-12-25T00:29:22.123Z,0.83
2017-12-25T00:31:49.546Z,0.80
2017-12-25T00:34:16.976Z,0.60
2017-12-25T00:36:45.185Z,0.80
2017-12-25T00:39:12.616Z,0.67
2017-12-25T00:41:40.801Z,0.73
2017-12-25T00:44:08.247Z,0.73
2017-12-25T00:46:36.851Z,0.97
2017-12-25T00:49:04.412Z,0.63
2017-12-25T00:51:31.871Z,0.70
2017-12-25T00:53:59.292Z,0.73
2017-12-25T00:56:27.481Z,0.80
2017-12-25T00:58:54.913Z,0.80
2017-12-25T01:01:23.122Z,1.00
2017-12-25T01:03:50.551Z,0.70
2017-12-25T01:06:18.745Z,0.83
2017-12-25T01:08:46.182Z,0.73
2017-12-25T01:11:14.374Z,0.57
2017-12-25T01:13:41.816Z,0.73
2017-12-25T01:16:10.005Z,0.70
2017-12-25T01:18:37.472Z,0.63
2017-12-25T01:21:05.482Z,0.70
2017-12-25T01:23:32.915Z,1.00
2017-12-25T01:26:00.347Z,0.70
2017-12-25T01:28:27.785Z,0.60
2017-12-25T01:30:55.273Z,0.73
2017-12-25T01:33:22.701Z,0.80
2017-12-25T01:35:50.128Z,0.67
2017-12-25T01:38:18.343Z,0.80
2017-12-25T01:40:45.770Z,0.90
2017-12-25T01:43:13.974Z,0.80
2017-12-25T01:45:41.397Z,1.10
2017-12-25T01:48:09.610Z,0.80
2017-12-25T01:50:37.070Z,0.70
2017-12-25T01:53:04.666Z,0.80
2017-12-25T01:55:32.194Z,0.80
2017-12-25T01:57:59.624Z,1.03
2017-12-25T02:00:42.093Z,0.70
2017-12-25T02:03:10.527Z,0.50
2017-12-25T02:05:48.634Z,0.63
2017-12-25T02:08:25.877Z,0.60
2017-12-25T02:10:54.098Z,0.60
2017-12-25T02:13:21.539Z,0.70
2017-12-25T02:15:48.983Z,0.67
2017-12-25T02:18:16.429Z,0.90
2017-12-25T02:20:43.866Z,0.70
2017-12-25T02:23:12.061Z,0.63
2017-12-25T02:25:39.546Z,0.80
2017-12-25T02:28:06.992Z,0.70
2017-12-25T02:30:34.446Z,1.03
2017-12-25T02:33:01.870Z,0.70
2017-12-25T02:35:30.073Z,0.83
2017-12-25T02:37:57.501Z,0.57
2017-12-25T02:40:24.938Z,0.63
2017-12-25T02:42:53.141Z,0.60
2017-12-25T02:45:20.586Z,0.70
2017-12-25T02:47:48.009Z,0.67
2017-12-25T02:50:15.461Z,0.50
2017-12-25T02:52:42.882Z,0.87
2017-12-25T02:55:10.346Z,0.70
2017-12-25T02:57:37.810Z,0.70
2017-12-25T03:00:05.257Z,0.73
2017-12-25T03:02:32.690Z,0.60
2017-12-25T03:05:00.136Z,0.50
2017-12-25T03:07:27.574Z,0.67
2017-12-25T03:09:55.803Z,0.60
2017-12-25T03:12:23.242Z,0.70
2017-12-25T03:14:50.694Z,0.63
2017-12-25T03:17:18.141Z,0.67
2017-12-25T03:19:45.614Z,0.60
2017-12-25T03:22:13.046Z,0.60
2017-12-25T03:24:40.490Z,0.50
2017-12-25T03:27:08.690Z,0.50
2017-12-25T03:29:36.122Z,0.70
2017-12-25T03:32:03.613Z,0.57
2017-12-25T03:34:31.048Z,0.60
2017-12-25T03:36:58.527Z,0.70
2017-12-25T03:39:25.972Z,0.50
2017-12-25T03:41:53.450Z,0.57
2017-12-25T03:44:20.894Z,0.60
2017-12-25T03:46:48.326Z,0.60
2017-12-25T03:49:15.752Z,0.60
2017-12-25T03:51:43.958Z,0.50
2017-12-25T03:54:11.438Z,0.70
2017-12-25T03:56:38.874Z,0.60
2017-12-25T03:59:06.313Z,0.70
2017-12-25T04:01:33.762Z,0.60
2017-12-25T04:04:01.190Z,0.70
2017-12-25T04:06:28.634Z,0.60
2017-12-25T04:08:56.068Z,0.50
2017-12-25T04:11:23.519Z,0.50
2017-12-25T04:13:50.987Z,0.67
2017-12-25T04:16:18.430Z,0.83
2017-12-25T04:18:45.878Z,0.70
2017-12-25T04:21:13.329Z,0.73
2017-12-25T04:23:40.815Z,0.87
2017-12-25T04:26:08.246Z,0.60
2017-12-25T04:28:35.675Z,0.70
2017-12-25T04:31:03.105Z,0.60
2017-12-25T04:33:30.542Z,0.60
2017-12-25T04:35:57.982Z,0.50
2017-12-25T04:38:25.436Z,0.87
2017-12-25T04:40:52.898Z,0.70
2017-12-25T04:43:20.366Z,0.80
2017-12-25T04:45:47.805Z,0.60
2017-12-25T04:48:15.269Z,0.60
2017-12-25T04:50:42.727Z,0.50
2017-12-25T04:53:10.151Z,0.67
2017-12-25T04:55:37.578Z,0.60
2017-12-25T04:58:05.803Z,0.77
2017-12-25T05:00:33.231Z,0.60
2017-12-25T05:03:00.670Z,0.60
2017-12-25T05:05:28.859Z,0.60
2017-12-25T05:07:56.287Z,0.50
2017-12-25T05:10:29.999Z,0.60
2017-12-25T05:12:57.810Z,0.60
2017-12-25T05:15:25.552Z,0.73
2017-12-25T05:17:52.990Z,0.60
2017-12-25T05:20:21.202Z,0.57
2017-12-25T05:22:48.651Z,0.57
2017-12-25T05:25:16.082Z,0.67
2017-12-25T05:27:44.290Z,0.70
2017-12-25T05:30:11.723Z,0.70
2017-12-25T05:32:39.167Z,0.57
2017-12-25T05:35:07.400Z,0.70
2017-12-25T05:37:34.977Z,0.70
2017-12-25T05:40:03.642Z,0.60
2017-12-25T05:42:31.885Z,0.70
2017-12-25T05:45:00.717Z,0.60
2017-12-25T05:47:28.176Z,0.63
2017-12-25T05:49:55.598Z,0.63
2017-12-25T05:52:23.060Z,0.87
2017-12-25T05:54:50.485Z,0.50
2017-12-25T05:57:17.922Z,0.60
2017-12-25T05:59:46.131Z,0.50
2017-12-25T06:02:13.644Z,0.50
2017-12-25T06:04:41.841Z,0.70
2017-12-25T06:07:09.287Z,0.53
2017-12-25T06:09:36.715Z,0.53
2017-12-25T06:12:04.935Z,0.70
2017-12-25T06:14:32.361Z,0.87
2017-12-25T06:17:00.578Z,0.60
2017-12-25T06:19:28.777Z,0.77
2017-12-25T06:21:56.333Z,0.47
2017-12-25T06:24:24.216Z,0.50
2017-12-25T06:26:52.583Z,0.57
2017-12-25T06:29:20.838Z,0.60
2017-12-25T06:31:51.406Z,0.60
2017-12-25T06:34:19.467Z,0.70
2017-12-25T06:36:47.765Z,0.50
2017-12-25T06:39:15.204Z,0.60
2017-12-25T06:41:43.401Z,0.50
2017-12-25T06:44:10.848Z,0.60
2017-12-25T06:46:39.044Z,0.43
2017-12-25T06:49:06.478Z,0.50
2017-12-25T06:51:33.920Z,0.50
2017-12-25T06:54:02.170Z,0.50
2017-12-25T06:56:29.686Z,0.67
2017-12-25T06:58:57.371Z,0.53
2017-12-25T07:01:25.713Z,0.57
2017-12-25T07:03:53.234Z,0.50
2017-12-25T07:06:21.490Z,0.60
2017-12-25T07:08:49.329Z,0.50
2017-12-25T07:11:18.559Z,0.40
2017-12-25T07:13:47.011Z,0.50
2017-12-25T07:16:14.450Z,0.60
2017-12-25T07:18:41.886Z,0.60
2017-12-25T07:21:09.318Z,0.60
2017-12-25T07:23:36.819Z,0.43
2017-12-25T07:26:04.201Z,0.50
2017-12-25T07:28:31.760Z,0.60
2017-12-25T07:30:59.443Z,0.50
2017-12-25T07:33:28.877Z,0.50
2017-12-25T07:36:01.825Z,0.57
2017-12-25T07:38:30.860Z,0.50
2017-12-25T07:41:01.282Z,0.50
2017-12-25T07:43:28.838Z,0.60
2017-12-25T07:45:56.267Z,0.60
2017-12-25T07:48:24.475Z,0.50
2017-12-25T07:50:51.968Z,0.50
2017-12-25T07:53:19.414Z,0.57
2017-12-25T07:55:46.846Z,0.63
2017-12-25T07:58:14.347Z,0.40
2017-12-25T08:00:41.786Z,0.60
2017-12-25T08:03:09.252Z,0.50
2017-12-25T08:05:37.212Z,0.70
2017-12-25T08:08:04.636Z,0.40
2017-12-25T08:10:32.107Z,0.57
2017-12-25T08:12:59.572Z,0.40
2017-12-25T08:15:26.993Z,0.50
2017-12-25T08:17:54.455Z,0.40
2017-12-25T08:20:21.899Z,0.60
2017-12-25T08:22:49.339Z,0.50
2017-12-25T08:25:17.839Z,0.53
2017-12-25T08:27:46.258Z,0.43
2017-12-25T08:30:15.875Z,0.67
2017-12-25T08:32:46.028Z,0.47
2017-12-25T08:35:15.548Z,0.60
2017-12-25T08:37:44.542Z,0.40
2017-12-25T08:40:12.420Z,0.60
2017-12-25T08:42:39.880Z,0.40
2017-12-25T08:45:08.086Z,0.70
2017-12-25T08:47:36.174Z,0.77
2017-12-25T08:50:04.040Z,0.70
2017-12-25T08:52:31.465Z,0.67
2017-12-25T08:54:58.917Z,0.93
2017-12-25T08:57:26.376Z,0.70
2017-12-25T08:59:53.835Z,0.63
2017-12-25T09:02:21.299Z,1.00
2017-12-25T09:04:48.749Z,0.80
2017-12-25T09:07:16.162Z,0.90
2017-12-25T09:09:43.703Z,0.80
2017-12-25T09:12:11.440Z,0.80
2017-12-25T09:14:39.778Z,0.67
2017-12-25T09:17:07.382Z,0.90
2017-12-25T09:19:34.831Z,0.70
2017-12-25T09:22:02.267Z,1.00
2017-12-25T09:24:29.778Z,0.77
2017-12-25T09:26:57.972Z,0.60
2017-12-25T09:29:25.386Z,0.63
2017-12-25T09:31:53.581Z,0.97
2017-12-25T09:34:21.206Z,0.50
2017-12-25T09:36:48.651Z,0.60
2017-12-25T09:39:16.558Z,0.70
2017-12-25T09:41:46.286Z,0.97
2017-12-25T09:44:13.755Z,1.00
2017-12-25T09:46:41.341Z,1.10
2017-12-25T09:49:12.932Z,1.00
2017-12-25T09:51:40.949Z,0.80
2017-12-25T09:54:09.627Z,0.90
2017-12-25T09:56:38.445Z,0.90
2017-12-25T09:59:07.418Z,0.90
2017-12-25T10:01:34.862Z,1.00
2017-12-25T10:04:02.351Z,0.90
2017-12-25T10:06:29.788Z,1.37
2017-12-25T10:08:57.220Z,0.90
2017-12-25T10:11:24.690Z,1.13
2017-12-25T10:13:52.330Z,1.30
2017-12-25T10:16:19.791Z,1.07
2017-12-25T10:18:47.229Z,1.23
2017-12-25T10:21:17.889Z,2.03
2017-12-25T10:23:49.730Z,1.00
2017-12-25T10:26:17.363Z,1.53
2017-12-25T10:28:48.161Z,1.30
2017-12-25T10:31:16.020Z,1.60
2017-12-25T10:33:44.883Z,1.10
2017-12-25T10:36:12.607Z,1.90
2017-12-25T10:38:40.839Z,1.40
2017-12-25T10:41:08.287Z,1.60
2017-12-25T10:43:35.720Z,1.10
2017-12-25T10:46:03.167Z,1.80
2017-12-25T10:48:32.654Z,1.37
2017-12-25T10:51:00.101Z,1.30
2017-12-25T10:53:27.543Z,1.37
2017-12-25T10:55:54.991Z,1.97
2017-12-25T10:58:22.423Z,1.27
2017-12-25T11:00:54.709Z,1.33
2017-12-25T11:03:22.124Z,1.37
2017-12-25T11:05:49.583Z,1.83
2017-12-25T11:08:17.025Z,1.33
2017-12-25T11:10:45.226Z,1.60
2017-12-25T11:13:12.677Z,2.00
2017-12-25T11:15:40.305Z,1.40
2017-12-25T11:18:08.752Z,1.07
2017-12-25T11:20:36.312Z,1.63
2017-12-25T11:23:04.389Z,1.50
2017-12-25T11:25:32.006Z,1.43
2017-12-25T11:27:59.450Z,1.43
2017-12-25T11:30:26.882Z,1.57
2017-12-25T11:32:55.087Z,1.20
2017-12-25T11:35:22.522Z,1.83
2017-12-25T11:37:49.976Z,1.50
2017-12-25T11:40:18.159Z,0.93
2017-12-25T11:42:45.602Z,1.40
2017-12-25T11:45:13.104Z,1.33
2017-12-25T11:47:40.952Z,1.73
2017-12-25T11:50:09.339Z,1.33
2017-12-25T11:52:39.212Z,1.40
2017-12-25T11:55:06.777Z,1.50
2017-12-25T11:57:34.215Z,1.30
2017-12-25T12:00:02.416Z,1.13
2017-12-25T12:02:29.855Z,1.60
2017-12-25T12:04:57.283Z,1.00
2017-12-25T12:07:24.726Z,0.90
2017-12-25T12:09:52.158Z,1.10
2017-12-25T12:12:19.603Z,1.20
2017-12-25T12:14:47.085Z,1.53
2017-12-25T12:17:15.858Z,1.30
2017-12-25T12:19:44.443Z,1.03
2017-12-25T12:22:11.890Z,1.57
2017-12-25T12:24:39.347Z,1.50
2017-12-25T12:27:07.272Z,1.17
2017-12-25T12:29:35.127Z,1.40
2017-12-25T12:32:03.595Z,1.13
2017-12-25T12:34:31.182Z,1.27
2017-12-25T12:36:59.378Z,1.40
2017-12-25T12:39:26.830Z,1.63
2017-12-25T12:41:54.250Z,1.10
2017-12-25T12:44:22.457Z,1.30
2017-12-25T12:46:49.882Z,1.40
2017-12-25T12:49:18.091Z,1.10
2017-12-25T12:51:45.513Z,1.17
2017-12-25T12:54:13.758Z,1.13
2017-12-25T12:56:41.388Z,1.40
2017-12-25T12:59:10.931Z,0.90
2017-12-25T13:01:39.846Z,1.53
2017-12-25T13:04:07.488Z,1.20
2017-12-25T13:06:35.099Z,1.50
2017-12-25T13:09:02.544Z,1.77
2017-12-25T13:11:29.970Z,1.87
2017-12-25T13:13:58.187Z,1.37
2017-12-25T13:16:25.641Z,1.30
2017-12-25T13:18:53.081Z,1.80
2017-12-25T13:21:20.502Z,1.67
2017-12-25T13:23:47.948Z,1.40
2017-12-25T13:26:15.379Z,1.00
2017-12-25T13:28:42.875Z,1.50
2017-12-25T13:31:10.316Z,1.43
2017-12-25T13:33:38.157Z,1.00
2017-12-25T13:36:07.175Z,1.20
2017-12-25T13:38:35.854Z,1.23
2017-12-25T13:41:03.269Z,1.20
2017-12-25T13:43:30.724Z,1.30
2017-12-25T13:45:58.139Z,0.90
2017-12-25T13:48:26.347Z,1.30
2017-12-25T13:50:53.774Z,1.23
2017-12-25T13:53:21.983Z,1.30
2017-12-25T13:55:49.407Z,1.10
2017-12-25T13:58:17.612Z,1.67
2017-12-25T14:00:45.180Z,1.17
2017-12-25T14:03:12.635Z,1.47
2017-12-25T14:05:40.760Z,1.27
2017-12-25T14:08:08.211Z,1.97
2017-12-25T14:10:35.627Z,0.90
2017-12-25T14:13:03.064Z,1.53
2017-12-25T14:15:30.555Z,1.20
2017-12-25T14:17:57.981Z,1.57
2017-12-25T14:20:25.408Z,1.70
2017-12-25T14:22:52.840Z,1.30
2017-12-25T14:25:21.058Z,1.10
2017-12-25T14:27:48.489Z,1.50
2017-12-25T14:30:16.707Z,1.40
2017-12-25T14:32:44.129Z,1.30
2017-12-25T14:35:11.570Z,1.50
2017-12-25T14:37:39.394Z,1.27
2017-12-25T14:40:07.549Z,1.30
2017-12-25T14:42:36.124Z,1.50
2017-12-25T14:45:03.673Z,1.50
2017-12-25T14:47:31.112Z,1.73
2017-12-25T14:49:58.550Z,1.40
2017-12-25T14:52:26.750Z,1.40
2017-12-25T14:54:54.194Z,1.47
2017-12-25T14:57:21.616Z,1.63
2017-12-25T14:59:49.050Z,1.17
2017-12-25T15:02:16.478Z,1.30
2017-12-25T15:04:44.035Z,1.27
2017-12-25T15:07:11.647Z,1.30
2017-12-25T15:09:41.003Z,1.33
2017-12-25T15:12:09.458Z,1.30
2017-12-25T15:14:36.934Z,1.23
2017-12-25T15:17:04.350Z,1.47
2017-12-25T15:19:32.562Z,1.47
2017-12-25T15:22:00.042Z,1.70
2017-12-25T15:24:27.485Z,1.70
2017-12-25T15:26:54.928Z,1.30
2017-12-25T15:29:22.350Z,1.40
2017-12-25T15:31:50.558Z,1.63
2017-12-25T15:34:18.143Z,1.60
2017-12-25T15:36:47.600Z,1.10
2017-12-25T15:39:15.194Z,2.37
2017-12-25T15:41:45.689Z,1.83
2017-12-25T15:44:13.525Z,1.40
2017-12-25T15:46:41.741Z,1.90
2017-12-25T15:49:09.172Z,1.63
2017-12-25T15:51:37.380Z,1.10
2017-12-25T15:54:04.801Z,1.43
2017-12-25T15:56:32.246Z,1.80
2017-12-25T15:59:00.443Z,1.50
2017-12-25T16:01:27.877Z,1.67
2017-12-25T16:03:56.130Z,1.50
2017-12-25T16:06:23.550Z,1.60
2017-12-25T16:08:50.981Z,1.70
2017-12-25T16:11:18.449Z,1.40
2017-12-25T16:13:46.629Z,1.37
2017-12-25T16:16:14.260Z,1.57
2017-12-25T16:18:42.973Z,1.67
2017-12-25T16:21:10.556Z,1.63
2017-12-25T16:23:38.197Z,2.03
2017-12-25T16:26:05.640Z,1.43
2017-12-25T16:28:33.062Z,2.10
2017-12-25T16:31:01.310Z,1.80
2017-12-25T16:33:28.742Z,1.60
2017-12-25T16:35:56.192Z,1.90
2017-12-25T16:38:23.614Z,2.00
2017-12-25T16:40:52.791Z,1.40
2017-12-25T16:43:20.327Z,1.73
2017-12-25T16:45:48.163Z,1.60
2017-12-25T16:48:17.624Z,1.43
2017-12-25T16:50:45.763Z,1.43
2017-12-25T16:53:13.191Z,1.53
2017-12-25T16:55:40.649Z,1.60
2017-12-25T16:58:08.106Z,1.80
2017-12-25T17:00:35.535Z,1.87
2017-12-25T17:03:02.959Z,2.00
2017-12-25T17:05:30.531Z,1.70
2017-12-25T17:07:58.762Z,2.27
2017-12-25T17:10:26.176Z,1.53
2017-12-25T17:12:53.618Z,2.00
2017-12-25T17:15:21.814Z,1.70
2017-12-25T17:17:49.250Z,1.93
2017-12-25T17:20:17.443Z,1.43
2017-12-25T17:22:44.930Z,1.90
2017-12-25T17:25:12.387Z,1.63
2017-12-25T17:27:39.858Z,1.80
2017-12-25T17:30:07.547Z,2.13
2017-12-25T17:32:36.217Z,1.87
2017-12-25T17:35:04.763Z,1.57
2017-12-25T17:37:32.194Z,1.30
2017-12-25T17:39:59.635Z,1.73
2017-12-25T17:42:27.082Z,1.23
2017-12-25T17:44:55.275Z,1.33
2017-12-25T17:47:22.722Z,2.27
2017-12-25T17:49:50.922Z,2.00
2017-12-25T17:52:18.444Z,1.83
2017-12-25T17:54:46.119Z,1.60
2017-12-25T17:57:15.858Z,1.67
2017-12-25T17:59:45.990Z,1.83
2017-12-25T18:02:14.675Z,1.47
2017-12-25T18:04:43.204Z,1.60
2017-12-25T18:07:11.505Z,1.77
2017-12-25T18:09:40.968Z,1.50
2017-12-25T18:12:10.683Z,1.80
2017-12-25T18:14:39.984Z,1.90
2017-12-25T18:17:07.446Z,1.70
2017-12-25T18:19:34.869Z,1.47
2017-12-25T18:22:02.315Z,1.77
2017-12-25T18:24:29.742Z,1.73
2017-12-25T18:26:57.174Z,1.20
2017-12-25T18:29:24.604Z,1.57
2017-12-25T18:31:52.794Z,1.43
2017-12-25T18:34:21.023Z,1.27
2017-12-25T18:36:48.713Z,1.37
2017-12-25T18:39:17.393Z,1.90
2017-12-25T18:41:45.489Z,2.23
2017-12-25T18:44:14.198Z,1.40
2017-12-25T18:46:42.560Z,1.20
2017-12-25T18:49:09.998Z,1.50
2017-12-25T18:51:38.187Z,1.37
2017-12-25T18:54:05.618Z,1.30
2017-12-25T18:56:33.818Z,1.17
2017-12-25T18:59:01.264Z,1.60
2017-12-25T19:01:28.692Z,1.30
2017-12-25T19:03:56.136Z,1.20
2017-12-25T19:06:24.442Z,2.10
2017-12-25T19:08:52.646Z,1.40
2017-12-25T19:11:20.087Z,1.83
2017-12-25T19:13:47.522Z,1.30
2017-12-25T19:16:15.759Z,1.20
2017-12-25T19:18:43.352Z,1.40
2017-12-25T19:21:10.993Z,1.70
2017-12-25T19:23:38.435Z,1.30
2017-12-25T19:26:05.868Z,0.90
2017-12-25T19:28:33.315Z,1.40
2017-12-25T19:31:00.755Z,1.27
2017-12-25T19:33:28.182Z,1.33
2017-12-25T19:35:56.378Z,1.47
2017-12-25T19:38:23.839Z,1.60
2017-12-25T19:40:51.364Z,1.30
2017-12-25T19:43:18.875Z,1.70
2017-12-25T19:45:47.208Z,1.40
2017-12-25T19:48:15.505Z,1.43
2017-12-25T19:50:42.970Z,1.07
2017-12-25T19:53:10.419Z,1.50
2017-12-25T19:55:37.859Z,1.27
2017-12-25T19:58:06.086Z,1.50
2017-12-25T20:00:33.519Z,1.07
2017-12-25T20:03:00.950Z,1.30
2017-12-25T20:05:28.384Z,1.50
2017-12-25T20:07:55.806Z,0.97
2017-12-25T20:10:23.250Z,1.20
2017-12-25T20:12:50.687Z,1.27
2017-12-25T20:15:18.180Z,1.43
2017-12-25T20:17:45.674Z,1.40
2017-12-25T20:20:13.264Z,1.10
2017-12-25T20:22:40.858Z,1.63
2017-12-25T20:25:08.356Z,1.20
2017-12-25T20:27:36.550Z,1.60
2017-12-25T20:30:03.991Z,1.13
2017-12-25T20:32:31.419Z,1.23
2017-12-25T20:34:58.865Z,1.30
2017-12-25T20:37:26.285Z,1.20
2017-12-25T20:39:53.735Z,1.00
2017-12-25T20:42:21.171Z,1.10
2017-12-25T20:44:49.565Z,1.30
2017-12-25T20:47:17.081Z,0.90
2017-12-25T20:49:44.696Z,1.37
2017-12-25T20:52:12.938Z,1.13
2017-12-25T20:54:40.446Z,0.90
2017-12-25T20:57:07.869Z,1.13
2017-12-25T20:59:35.300Z,1.00
2017-12-25T21:02:02.730Z,1.20
2017-12-25T21:04:30.167Z,1.30
2017-12-25T21:06:57.595Z,0.97
2017-12-25T21:09:25.043Z,1.00
2017-12-25T21:11:52.465Z,1.03
2017-12-25T21:14:20.675Z,0.90
2017-12-25T21:16:48.118Z,1.00
2017-12-25T21:19:16.305Z,1.60
2017-12-25T21:21:44.034Z,1.63
2017-12-25T21:24:12.594Z,1.00
2017-12-25T21:26:40.085Z,1.30
2017-12-25T21:29:07.587Z,1.40
2017-12-25T21:31:35.015Z,0.97
2017-12-25T21:34:02.442Z,1.27
2017-12-25T21:36:30.780Z,1.57
2017-12-25T21:38:58.206Z,1.27
2017-12-25T21:41:25.646Z,1.10
2017-12-25T21:43:53.183Z,1.10
2017-12-25T21:46:20.819Z,1.20
2017-12-25T21:48:48.530Z,1.00
2017-12-25T21:51:17.046Z,1.00
2017-12-25T21:53:44.504Z,0.90
2017-12-25T21:56:11.963Z,0.80
2017-12-25T21:58:39.392Z,1.00
2017-12-25T22:01:06.829Z,1.00
2017-12-25T22:03:34.254Z,1.00
2017-12-25T22:06:02.463Z,1.20
2017-12-25T22:08:29.885Z,0.80
2017-12-25T22:10:58.104Z,1.13
2017-12-25T22:13:25.540Z,1.13
2017-12-25T22:15:52.975Z,1.20
2017-12-25T22:18:21.173Z,0.80
2017-12-25T22:20:48.828Z,1.00
2017-12-25T22:23:16.541Z,0.80
2017-12-25T22:25:45.057Z,1.03
2017-12-25T22:28:13.837Z,1.10
2017-12-25T22:30:42.452Z,1.00
2017-12-25T22:33:10.919Z,1.07
2017-12-25T22:35:38.367Z,0.93
2017-12-25T22:38:05.791Z,0.80
2017-12-25T22:40:33.234Z,0.80
2017-12-25T22:43:00.658Z,0.80
2017-12-25T22:45:28.108Z,0.80
2017-12-25T22:47:55.535Z,0.90
2017-12-25T22:50:23.822Z,0.83
2017-12-25T22:52:51.348Z,0.90
2017-12-25T22:55:19.147Z,0.90
2017-12-25T22:57:46.870Z,0.80
2017-12-25T23:00:14.387Z,0.90
2017-12-25T23:02:41.827Z,1.00
2017-12-25T23:05:09.777Z,0.90
2017-12-25T23:07:37.270Z,0.97
2017-12-25T23:10:04.699Z,0.90
2017-12-25T23:12:32.135Z,0.90
2017-12-25T23:15:00.325Z,1.00
2017-12-25T23:17:27.822Z,0.90
2017-12-25T23:19:55.276Z,0.80
2017-12-25T23:22:22.719Z,0.83
2017-12-25T23:24:50.242Z,0.90
2017-12-25T23:27:18.494Z,1.03
2017-12-25T23:29:46.070Z,1.00
2017-12-25T23:32:17.239Z,1.20
2017-12-25T23:34:44.710Z,0.87
2017-12-25T23:37:12.139Z,1.10
2017-12-25T23:39:39.654Z,0.90
2017-12-25T23:42:07.087Z,0.90
2017-12-25T23:44:34.514Z,1.00
2017-12-25T23:47:01.963Z,0.97
2017-12-25T23:49:29.390Z,1.03
2017-12-25T23:51:57.599Z,0.90
2017-12-25T23:54:25.036Z,0.80
2017-12-25T23:56:53.301Z,0.90
2017-12-25T23:59:21.514Z,0.80
